sensor_id;sensor_type;location;lat;lon;timestamp;P1;durP1;ratioP1;P2;durP2;ratioP2
54909;SDS011;40808;51.240;9.964;2022-08-19T00:01:07;16.25;;;13.50;;
54909;SDS011;40808;51.240;9.964;2022-08-19T00:03:34;17.80;;;14.43;;
54909;SDS011;40808;51.240;9.964;2022-08-19T00:05:59;19.45;;;13.80;;
54909;SDS011;40808;51.240;9.964;2022-08-19T00:08:25;17.30;;;14.10;;
54909;SDS011;40808;51.240;9.964;2022-08-19T00:10:50;22.35;;;14.38;;
54909;SDS011;40808;51.240;9.964;2022-08-19T00:13:16;20.65;;;15.00;;
54909;SDS011;40808;51.240;9.964;2022-08-19T00:15:41;22.13;;;16.73;;
54909;SDS011;40808;51.240;9.964;2022-08-19T00:18:09;17.80;;;13.35;;
54909;SDS011;40808;51.240;9.964;2022-08-19T00:20:35;15.90;;;12.73;;
54909;SDS011;40808;51.240;9.964;2022-08-19T00:23:01;17.63;;;13.07;;
54909;SDS011;40808;51.240;9.964;2022-08-19T00:25:30;15.63;;;13.32;;
54909;SDS011;40808;51.240;9.964;2022-08-19T00:27:56;17.33;;;13.45;;
54909;SDS011;40808;51.240;9.964;2022-08-19T00:30:21;17.00;;;13.55;;
54909;SDS011;40808;51.240;9.964;2022-08-19T00:32:47;20.58;;;14.05;;
54909;SDS011;40808;51.240;9.964;2022-08-19T00:35:12;26.02;;;16.25;;
54909;SDS011;40808;51.240;9.964;2022-08-19T00:37:38;21.83;;;15.52;;
54909;SDS011;40808;51.240;9.964;2022-08-19T00:40:08;19.90;;;15.93;;
54909;SDS011;40808;51.240;9.964;2022-08-19T00:42:35;18.05;;;14.25;;
54909;SDS011;40808;51.240;9.964;2022-08-19T00:45:00;15.90;;;13.98;;
54909;SDS011;40808;51.240;9.964;2022-08-19T00:47:25;18.92;;;14.57;;
54909;SDS011;40808;51.240;9.964;2022-08-19T00:49:52;20.63;;;15.05;;
54909;SDS011;40808;51.240;9.964;2022-08-19T00:52:43;26.27;;;18.38;;
54909;SDS011;40808;51.240;9.964;2022-08-19T00:55:10;19.73;;;15.30;;
54909;SDS011;40808;51.240;9.964;2022-08-19T00:57:39;20.13;;;16.73;;
54909;SDS011;40808;51.240;9.964;2022-08-19T01:00:10;21.80;;;16.35;;
54909;SDS011;40808;51.240;9.964;2022-08-19T01:02:39;23.95;;;19.00;;
54909;SDS011;40808;51.240;9.964;2022-08-19T01:05:06;21.92;;;18.45;;
54909;SDS011;40808;51.240;9.964;2022-08-19T01:07:35;24.67;;;18.25;;
54909;SDS011;40808;51.240;9.964;2022-08-19T01:10:02;24.60;;;18.80;;
54909;SDS011;40808;51.240;9.964;2022-08-19T01:12:29;22.73;;;17.02;;
54909;SDS011;40808;51.240;9.964;2022-08-19T01:14:55;25.60;;;19.17;;
54909;SDS011;40808;51.240;9.964;2022-08-19T01:17:21;25.00;;;19.17;;
54909;SDS011;40808;51.240;9.964;2022-08-19T01:19:47;18.17;;;16.17;;
54909;SDS011;40808;51.240;9.964;2022-08-19T01:22:25;21.48;;;16.85;;
54909;SDS011;40808;51.240;9.964;2022-08-19T01:24:56;19.40;;;14.40;;
54909;SDS011;40808;51.240;9.964;2022-08-19T01:27:22;19.02;;;14.43;;
54909;SDS011;40808;51.240;9.964;2022-08-19T01:29:47;19.67;;;14.38;;
54909;SDS011;40808;51.240;9.964;2022-08-19T01:32:15;14.35;;;11.98;;
54909;SDS011;40808;51.240;9.964;2022-08-19T01:34:42;19.77;;;13.82;;
54909;SDS011;40808;51.240;9.964;2022-08-19T01:37:12;19.75;;;13.38;;
54909;SDS011;40808;51.240;9.964;2022-08-19T01:39:40;17.85;;;11.95;;
54909;SDS011;40808;51.240;9.964;2022-08-19T01:42:07;20.83;;;13.80;;
54909;SDS011;40808;51.240;9.964;2022-08-19T01:44:36;17.40;;;13.27;;
54909;SDS011;40808;51.240;9.964;2022-08-19T01:47:02;18.90;;;13.82;;
54909;SDS011;40808;51.240;9.964;2022-08-19T01:49:28;16.73;;;12.52;;
54909;SDS011;40808;51.240;9.964;2022-08-19T01:51:54;15.48;;;11.50;;
54909;SDS011;40808;51.240;9.964;2022-08-19T01:54:21;16.70;;;11.52;;
54909;SDS011;40808;51.240;9.964;2022-08-19T01:56:48;15.85;;;10.73;;
54909;SDS011;40808;51.240;9.964;2022-08-19T01:59:16;15.80;;;11.05;;
54909;SDS011;40808;51.240;9.964;2022-08-19T02:01:43;13.73;;;11.43;;
54909;SDS011;40808;51.240;9.964;2022-08-19T02:04:09;17.02;;;11.32;;
54909;SDS011;40808;51.240;9.964;2022-08-19T02:06:35;13.30;;;10.20;;
54909;SDS011;40808;51.240;9.964;2022-08-19T02:09:01;13.02;;;10.52;;
54909;SDS011;40808;51.240;9.964;2022-08-19T02:11:29;17.48;;;11.00;;
54909;SDS011;40808;51.240;9.964;2022-08-19T02:13:59;15.48;;;9.93;;
54909;SDS011;40808;51.240;9.964;2022-08-19T02:16:27;14.15;;;9.80;;
54909;SDS011;40808;51.240;9.964;2022-08-19T02:18:53;11.77;;;9.35;;
54909;SDS011;40808;51.240;9.964;2022-08-19T02:21:20;12.07;;;8.90;;
54909;SDS011;40808;51.240;9.964;2022-08-19T02:23:47;14.60;;;9.27;;
54909;SDS011;40808;51.240;9.964;2022-08-19T02:26:13;11.18;;;8.30;;
54909;SDS011;40808;51.240;9.964;2022-08-19T02:28:39;12.93;;;9.88;;
54909;SDS011;40808;51.240;9.964;2022-08-19T02:31:12;12.23;;;9.32;;
54909;SDS011;40808;51.240;9.964;2022-08-19T02:33:42;12.30;;;9.48;;
54909;SDS011;40808;51.240;9.964;2022-08-19T02:36:08;13.27;;;9.20;;
54909;SDS011;40808;51.240;9.964;2022-08-19T02:38:35;10.18;;;8.07;;
54909;SDS011;40808;51.240;9.964;2022-08-19T02:41:11;14.48;;;8.90;;
54909;SDS011;40808;51.240;9.964;2022-08-19T02:43:39;13.05;;;9.23;;
54909;SDS011;40808;51.240;9.964;2022-08-19T02:48:59;12.98;;;8.73;;
54909;SDS011;40808;51.240;9.964;2022-08-19T02:51:30;12.15;;;8.23;;
54909;SDS011;40808;51.240;9.964;2022-08-19T02:53:58;15.63;;;9.65;;
54909;SDS011;40808;51.240;9.964;2022-08-19T02:56:25;11.52;;;8.35;;
54909;SDS011;40808;51.240;9.964;2022-08-19T02:58:52;11.32;;;8.40;;
54909;SDS011;40808;51.240;9.964;2022-08-19T03:01:19;10.98;;;8.50;;
54909;SDS011;40808;51.240;9.964;2022-08-19T03:03:47;15.27;;;8.80;;
54909;SDS011;40808;51.240;9.964;2022-08-19T03:06:13;13.57;;;9.05;;
54909;SDS011;40808;51.240;9.964;2022-08-19T03:08:41;11.07;;;8.43;;
54909;SDS011;40808;51.240;9.964;2022-08-19T03:11:12;9.65;;;7.70;;
54909;SDS011;40808;51.240;9.964;2022-08-19T03:13:42;14.18;;;7.43;;
54909;SDS011;40808;51.240;9.964;2022-08-19T03:16:08;8.35;;;6.60;;
54909;SDS011;40808;51.240;9.964;2022-08-19T03:18:34;10.00;;;6.05;;
54909;SDS011;40808;51.240;9.964;2022-08-19T03:20:59;10.85;;;7.38;;
54909;SDS011;40808;51.240;9.964;2022-08-19T03:23:25;10.27;;;7.72;;
54909;SDS011;40808;51.240;9.964;2022-08-19T03:25:51;11.27;;;7.20;;
54909;SDS011;40808;51.240;9.964;2022-08-19T03:28:17;11.40;;;7.43;;
54909;SDS011;40808;51.240;9.964;2022-08-19T03:30:54;9.05;;;6.57;;
54909;SDS011;40808;51.240;9.964;2022-08-19T03:33:21;9.60;;;6.47;;
54909;SDS011;40808;51.240;9.964;2022-08-19T03:35:58;8.45;;;6.57;;
54909;SDS011;40808;51.240;9.964;2022-08-19T03:38:25;9.63;;;7.00;;
54909;SDS011;40808;51.240;9.964;2022-08-19T03:40:50;9.35;;;6.78;;
54909;SDS011;40808;51.240;9.964;2022-08-19T03:43:15;7.65;;;5.47;;
54909;SDS011;40808;51.240;9.964;2022-08-19T03:45:42;10.73;;;6.05;;
54909;SDS011;40808;51.240;9.964;2022-08-19T03:48:07;10.25;;;6.32;;
54909;SDS011;40808;51.240;9.964;2022-08-19T03:50:33;9.27;;;6.10;;
54909;SDS011;40808;51.240;9.964;2022-08-19T03:53:04;8.65;;;6.70;;
54909;SDS011;40808;51.240;9.964;2022-08-19T03:55:29;9.27;;;6.60;;
54909;SDS011;40808;51.240;9.964;2022-08-19T03:57:55;12.32;;;7.63;;
54909;SDS011;40808;51.240;9.964;2022-08-19T04:00:21;11.13;;;7.38;;
54909;SDS011;40808;51.240;9.964;2022-08-19T04:02:46;10.07;;;6.07;;
54909;SDS011;40808;51.240;9.964;2022-08-19T04:05:12;11.13;;;7.10;;
54909;SDS011;40808;51.240;9.964;2022-08-19T04:07:38;10.82;;;7.53;;
54909;SDS011;40808;51.240;9.964;2022-08-19T04:10:05;10.13;;;7.85;;
54909;SDS011;40808;51.240;9.964;2022-08-19T04:12:31;10.68;;;7.35;;
54909;SDS011;40808;51.240;9.964;2022-08-19T04:14:56;9.02;;;7.28;;
54909;SDS011;40808;51.240;9.964;2022-08-19T04:17:24;10.32;;;7.10;;
54909;SDS011;40808;51.240;9.964;2022-08-19T04:19:52;10.57;;;7.90;;
54909;SDS011;40808;51.240;9.964;2022-08-19T04:22:17;9.57;;;7.82;;
54909;SDS011;40808;51.240;9.964;2022-08-19T04:24:43;9.73;;;7.30;;
54909;SDS011;40808;51.240;9.964;2022-08-19T04:27:08;10.38;;;7.53;;
54909;SDS011;40808;51.240;9.964;2022-08-19T04:29:34;10.85;;;7.28;;
54909;SDS011;40808;51.240;9.964;2022-08-19T04:31:59;13.15;;;8.18;;
54909;SDS011;40808;51.240;9.964;2022-08-19T04:34:28;9.45;;;6.65;;
54909;SDS011;40808;51.240;9.964;2022-08-19T04:36:54;9.20;;;6.63;;
54909;SDS011;40808;51.240;9.964;2022-08-19T04:39:23;10.95;;;7.60;;
54909;SDS011;40808;51.240;9.964;2022-08-19T04:42:11;9.80;;;7.18;;
54909;SDS011;40808;51.240;9.964;2022-08-19T04:44:56;9.82;;;7.50;;
54909;SDS011;40808;51.240;9.964;2022-08-19T04:47:21;9.15;;;7.30;;
54909;SDS011;40808;51.240;9.964;2022-08-19T04:49:47;10.73;;;7.25;;
54909;SDS011;40808;51.240;9.964;2022-08-19T04:52:13;10.25;;;7.53;;
54909;SDS011;40808;51.240;9.964;2022-08-19T04:54:39;9.77;;;7.55;;
54909;SDS011;40808;51.240;9.964;2022-08-19T04:57:08;10.82;;;8.23;;
54909;SDS011;40808;51.240;9.964;2022-08-19T04:59:35;10.98;;;8.05;;
54909;SDS011;40808;51.240;9.964;2022-08-19T05:02:01;12.13;;;8.75;;
54909;SDS011;40808;51.240;9.964;2022-08-19T05:04:27;12.38;;;8.35;;
54909;SDS011;40808;51.240;9.964;2022-08-19T05:06:56;12.73;;;8.02;;
54909;SDS011;40808;51.240;9.964;2022-08-19T05:09:22;9.95;;;8.10;;
54909;SDS011;40808;51.240;9.964;2022-08-19T05:11:47;9.77;;;7.18;;
54909;SDS011;40808;51.240;9.964;2022-08-19T05:14:12;9.98;;;7.55;;
54909;SDS011;40808;51.240;9.964;2022-08-19T05:16:38;11.77;;;7.88;;
54909;SDS011;40808;51.240;9.964;2022-08-19T05:19:05;11.32;;;7.80;;
54909;SDS011;40808;51.240;9.964;2022-08-19T05:21:49;9.00;;;6.80;;
54909;SDS011;40808;51.240;9.964;2022-08-19T05:24:33;11.15;;;6.95;;
54909;SDS011;40808;51.240;9.964;2022-08-19T05:26:59;9.80;;;7.32;;
54909;SDS011;40808;51.240;9.964;2022-08-19T05:29:26;9.25;;;6.60;;
54909;SDS011;40808;51.240;9.964;2022-08-19T05:31:52;9.13;;;6.35;;
54909;SDS011;40808;51.240;9.964;2022-08-19T05:34:19;9.88;;;5.82;;
54909;SDS011;40808;51.240;9.964;2022-08-19T05:36:47;7.70;;;5.80;;
54909;SDS011;40808;51.240;9.964;2022-08-19T05:39:15;7.07;;;5.68;;
54909;SDS011;40808;51.240;9.964;2022-08-19T05:41:43;8.07;;;5.90;;
54909;SDS011;40808;51.240;9.964;2022-08-19T05:44:10;7.53;;;5.20;;
54909;SDS011;40808;51.240;9.964;2022-08-19T05:46:36;6.07;;;4.72;;
54909;SDS011;40808;51.240;9.964;2022-08-19T05:49:07;6.28;;;5.20;;
54909;SDS011;40808;51.240;9.964;2022-08-19T05:51:33;8.93;;;5.50;;
54909;SDS011;40808;51.240;9.964;2022-08-19T05:54:04;5.95;;;4.43;;
54909;SDS011;40808;51.240;9.964;2022-08-19T05:56:32;6.88;;;4.22;;
54909;SDS011;40808;51.240;9.964;2022-08-19T05:59:01;4.38;;;3.83;;
54909;SDS011;40808;51.240;9.964;2022-08-19T06:01:27;5.55;;;3.75;;
54909;SDS011;40808;51.240;9.964;2022-08-19T06:03:52;6.47;;;3.92;;
54909;SDS011;40808;51.240;9.964;2022-08-19T06:06:18;4.22;;;3.40;;
54909;SDS011;40808;51.240;9.964;2022-08-19T06:08:44;5.00;;;3.50;;
54909;SDS011;40808;51.240;9.964;2022-08-19T06:16:16;4.78;;;3.25;;
54909;SDS011;40808;51.240;9.964;2022-08-19T06:18:48;4.68;;;3.00;;
54909;SDS011;40808;51.240;9.964;2022-08-19T06:21:20;4.70;;;3.67;;
54909;SDS011;40808;51.240;9.964;2022-08-19T06:23:46;4.10;;;2.92;;
54909;SDS011;40808;51.240;9.964;2022-08-19T06:26:12;4.63;;;3.33;;
54909;SDS011;40808;51.240;9.964;2022-08-19T06:28:39;4.82;;;2.92;;
54909;SDS011;40808;51.240;9.964;2022-08-19T06:31:10;4.70;;;3.10;;
54909;SDS011;40808;51.240;9.964;2022-08-19T06:33:38;4.78;;;2.85;;
54909;SDS011;40808;51.240;9.964;2022-08-19T06:36:04;3.33;;;3.00;;
54909;SDS011;40808;51.240;9.964;2022-08-19T06:38:30;5.88;;;2.75;;
54909;SDS011;40808;51.240;9.964;2022-08-19T06:41:02;4.80;;;3.10;;
54909;SDS011;40808;51.240;9.964;2022-08-19T06:43:29;4.20;;;2.60;;
54909;SDS011;40808;51.240;9.964;2022-08-19T06:45:55;3.90;;;2.58;;
54909;SDS011;40808;51.240;9.964;2022-08-19T06:48:20;3.25;;;2.45;;
54909;SDS011;40808;51.240;9.964;2022-08-19T06:50:45;5.47;;;2.75;;
54909;SDS011;40808;51.240;9.964;2022-08-19T06:53:12;3.58;;;2.30;;
54909;SDS011;40808;51.240;9.964;2022-08-19T06:55:37;3.78;;;2.42;;
54909;SDS011;40808;51.240;9.964;2022-08-19T06:58:04;2.88;;;2.35;;
54909;SDS011;40808;51.240;9.964;2022-08-19T07:00:30;4.30;;;2.70;;
54909;SDS011;40808;51.240;9.964;2022-08-19T07:02:55;4.20;;;2.75;;
54909;SDS011;40808;51.240;9.964;2022-08-19T07:05:20;5.53;;;2.47;;
54909;SDS011;40808;51.240;9.964;2022-08-19T07:07:47;3.70;;;2.75;;
54909;SDS011;40808;51.240;9.964;2022-08-19T07:10:12;4.47;;;2.40;;
54909;SDS011;40808;51.240;9.964;2022-08-19T07:12:38;3.75;;;2.28;;
54909;SDS011;40808;51.240;9.964;2022-08-19T07:15:06;4.72;;;2.80;;
54909;SDS011;40808;51.240;9.964;2022-08-19T07:17:33;3.92;;;2.50;;
54909;SDS011;40808;51.240;9.964;2022-08-19T07:20:02;2.95;;;2.58;;
54909;SDS011;40808;51.240;9.964;2022-08-19T07:22:28;3.67;;;2.47;;
54909;SDS011;40808;51.240;9.964;2022-08-19T07:24:53;5.57;;;2.92;;
54909;SDS011;40808;51.240;9.964;2022-08-19T07:27:19;4.22;;;2.22;;
54909;SDS011;40808;51.240;9.964;2022-08-19T07:29:44;4.18;;;2.55;;
54909;SDS011;40808;51.240;9.964;2022-08-19T07:32:11;4.40;;;2.78;;
54909;SDS011;40808;51.240;9.964;2022-08-19T07:34:36;3.67;;;2.55;;
54909;SDS011;40808;51.240;9.964;2022-08-19T07:37:03;3.78;;;2.28;;
54909;SDS011;40808;51.240;9.964;2022-08-19T07:39:30;3.88;;;2.80;;
54909;SDS011;40808;51.240;9.964;2022-08-19T07:41:58;4.45;;;2.47;;
54909;SDS011;40808;51.240;9.964;2022-08-19T07:44:26;3.67;;;2.60;;
54909;SDS011;40808;51.240;9.964;2022-08-19T07:46:53;4.60;;;2.83;;
54909;SDS011;40808;51.240;9.964;2022-08-19T07:49:21;5.70;;;2.65;;
54909;SDS011;40808;51.240;9.964;2022-08-19T07:51:48;5.07;;;3.10;;
54909;SDS011;40808;51.240;9.964;2022-08-19T07:54:17;4.85;;;2.70;;
54909;SDS011;40808;51.240;9.964;2022-08-19T07:56:42;3.67;;;2.35;;
54909;SDS011;40808;51.240;9.964;2022-08-19T07:59:08;4.40;;;2.95;;
54909;SDS011;40808;51.240;9.964;2022-08-19T08:01:34;4.07;;;2.80;;
54909;SDS011;40808;51.240;9.964;2022-08-19T08:03:59;5.72;;;3.22;;
54909;SDS011;40808;51.240;9.964;2022-08-19T08:06:44;3.20;;;2.80;;
54909;SDS011;40808;51.240;9.964;2022-08-19T08:09:39;5.40;;;2.80;;
54909;SDS011;40808;51.240;9.964;2022-08-19T08:12:18;4.18;;;2.85;;
54909;SDS011;40808;51.240;9.964;2022-08-19T08:14:50;3.83;;;2.60;;
54909;SDS011;40808;51.240;9.964;2022-08-19T08:17:19;5.93;;;2.45;;
54909;SDS011;40808;51.240;9.964;2022-08-19T08:19:46;3.55;;;2.50;;
54909;SDS011;40808;51.240;9.964;2022-08-19T08:22:16;3.22;;;2.38;;
54909;SDS011;40808;51.240;9.964;2022-08-19T08:25:04;3.15;;;2.78;;
54909;SDS011;40808;51.240;9.964;2022-08-19T08:27:31;4.43;;;3.08;;
54909;SDS011;40808;51.240;9.964;2022-08-19T08:30:00;3.22;;;2.88;;
54909;SDS011;40808;51.240;9.964;2022-08-19T08:32:25;4.22;;;2.83;;
54909;SDS011;40808;51.240;9.964;2022-08-19T08:34:51;4.55;;;2.85;;
54909;SDS011;40808;51.240;9.964;2022-08-19T08:37:17;4.82;;;3.00;;
54909;SDS011;40808;51.240;9.964;2022-08-19T08:39:42;5.82;;;3.17;;
54909;SDS011;40808;51.240;9.964;2022-08-19T08:42:21;4.18;;;2.70;;
54909;SDS011;40808;51.240;9.964;2022-08-19T08:47:43;5.43;;;3.08;;
54909;SDS011;40808;51.240;9.964;2022-08-19T08:53:04;5.13;;;2.72;;
54909;SDS011;40808;51.240;9.964;2022-08-19T08:55:33;5.10;;;2.90;;
54909;SDS011;40808;51.240;9.964;2022-08-19T08:58:01;4.03;;;2.80;;
54909;SDS011;40808;51.240;9.964;2022-08-19T09:00:35;3.45;;;2.40;;
54909;SDS011;40808;51.240;9.964;2022-08-19T09:03:03;3.28;;;2.42;;
54909;SDS011;40808;51.240;9.964;2022-08-19T09:08:22;3.40;;;2.28;;
54909;SDS011;40808;51.240;9.964;2022-08-19T09:10:56;2.55;;;1.90;;
54909;SDS011;40808;51.240;9.964;2022-08-19T09:13:29;2.95;;;2.25;;
54909;SDS011;40808;51.240;9.964;2022-08-19T09:16:07;3.10;;;2.25;;
54909;SDS011;40808;51.240;9.964;2022-08-19T09:21:28;2.38;;;1.70;;
54909;SDS011;40808;51.240;9.964;2022-08-19T09:23:54;1.90;;;1.60;;
54909;SDS011;40808;51.240;9.964;2022-08-19T09:26:21;5.25;;;2.05;;
54909;SDS011;40808;51.240;9.964;2022-08-19T09:28:47;5.78;;;2.47;;
54909;SDS011;40808;51.240;9.964;2022-08-19T09:31:16;2.72;;;1.77;;
54909;SDS011;40808;51.240;9.964;2022-08-19T09:33:43;2.80;;;1.90;;
54909;SDS011;40808;51.240;9.964;2022-08-19T09:36:09;5.13;;;2.15;;
54909;SDS011;40808;51.240;9.964;2022-08-19T09:38:37;2.15;;;1.95;;
54909;SDS011;40808;51.240;9.964;2022-08-19T09:41:06;2.97;;;2.25;;
54909;SDS011;40808;51.240;9.964;2022-08-19T09:43:33;3.88;;;2.22;;
54909;SDS011;40808;51.240;9.964;2022-08-19T09:46:01;4.38;;;2.03;;
54909;SDS011;40808;51.240;9.964;2022-08-19T09:48:30;3.75;;;2.17;;
54909;SDS011;40808;51.240;9.964;2022-08-19T09:51:02;3.13;;;2.03;;
54909;SDS011;40808;51.240;9.964;2022-08-19T09:53:35;6.07;;;2.45;;
54909;SDS011;40808;51.240;9.964;2022-08-19T09:56:03;5.10;;;1.95;;
54909;SDS011;40808;51.240;9.964;2022-08-19T09:58:29;1.92;;;1.70;;
54909;SDS011;40808;51.240;9.964;2022-08-19T10:00:56;3.03;;;2.20;;
54909;SDS011;40808;51.240;9.964;2022-08-19T10:03:23;3.45;;;2.15;;
54909;SDS011;40808;51.240;9.964;2022-08-19T10:05:49;3.50;;;1.60;;
54909;SDS011;40808;51.240;9.964;2022-08-19T10:08:24;2.17;;;1.80;;
54909;SDS011;40808;51.240;9.964;2022-08-19T10:10:51;5.93;;;2.17;;
54909;SDS011;40808;51.240;9.964;2022-08-19T10:13:19;3.55;;;2.30;;
54909;SDS011;40808;51.240;9.964;2022-08-19T10:15:50;3.90;;;2.42;;
54909;SDS011;40808;51.240;9.964;2022-08-19T10:18:17;6.57;;;2.05;;
54909;SDS011;40808;51.240;9.964;2022-08-19T10:20:46;3.92;;;2.35;;
54909;SDS011;40808;51.240;9.964;2022-08-19T10:23:13;4.03;;;2.15;;
54909;SDS011;40808;51.240;9.964;2022-08-19T10:25:40;4.35;;;2.08;;
54909;SDS011;40808;51.240;9.964;2022-08-19T10:28:06;6.35;;;2.50;;
54909;SDS011;40808;51.240;9.964;2022-08-19T10:30:32;4.00;;;2.10;;
54909;SDS011;40808;51.240;9.964;2022-08-19T10:32:59;2.58;;;1.95;;
54909;SDS011;40808;51.240;9.964;2022-08-19T10:35:25;4.53;;;1.90;;
54909;SDS011;40808;51.240;9.964;2022-08-19T10:37:52;2.92;;;1.63;;
54909;SDS011;40808;51.240;9.964;2022-08-19T10:40:18;4.07;;;1.90;;
54909;SDS011;40808;51.240;9.964;2022-08-19T10:42:43;2.83;;;2.08;;
54909;SDS011;40808;51.240;9.964;2022-08-19T10:45:09;2.63;;;1.60;;
54909;SDS011;40808;51.240;9.964;2022-08-19T10:47:35;3.08;;;1.70;;
54909;SDS011;40808;51.240;9.964;2022-08-19T10:50:00;3.05;;;1.67;;
54909;SDS011;40808;51.240;9.964;2022-08-19T10:52:46;4.30;;;1.90;;
54909;SDS011;40808;51.240;9.964;2022-08-19T10:55:13;3.03;;;1.70;;
54909;SDS011;40808;51.240;9.964;2022-08-19T10:57:57;2.47;;;1.80;;
54909;SDS011;40808;51.240;9.964;2022-08-19T11:00:23;2.20;;;1.70;;
54909;SDS011;40808;51.240;9.964;2022-08-19T11:02:50;1.98;;;1.48;;
54909;SDS011;40808;51.240;9.964;2022-08-19T11:05:15;2.88;;;1.77;;
54909;SDS011;40808;51.240;9.964;2022-08-19T11:07:42;2.40;;;1.75;;
54909;SDS011;40808;51.240;9.964;2022-08-19T11:10:10;3.00;;;1.98;;
54909;SDS011;40808;51.240;9.964;2022-08-19T11:12:40;2.92;;;1.65;;
54909;SDS011;40808;51.240;9.964;2022-08-19T11:15:07;5.30;;;1.60;;
54909;SDS011;40808;51.240;9.964;2022-08-19T11:17:36;3.20;;;1.75;;
54909;SDS011;40808;51.240;9.964;2022-08-19T11:20:10;2.40;;;1.75;;
54909;SDS011;40808;51.240;9.964;2022-08-19T11:22:39;2.42;;;1.80;;
54909;SDS011;40808;51.240;9.964;2022-08-19T11:25:06;4.43;;;1.75;;
54909;SDS011;40808;51.240;9.964;2022-08-19T11:27:32;3.55;;;1.95;;
54909;SDS011;40808;51.240;9.964;2022-08-19T11:29:58;2.35;;;1.70;;
54909;SDS011;40808;51.240;9.964;2022-08-19T11:32:24;2.53;;;1.63;;
54909;SDS011;40808;51.240;9.964;2022-08-19T11:34:49;1.67;;;1.40;;
54909;SDS011;40808;51.240;9.964;2022-08-19T11:37:15;2.67;;;1.60;;
54909;SDS011;40808;51.240;9.964;2022-08-19T11:39:40;2.42;;;1.70;;
54909;SDS011;40808;51.240;9.964;2022-08-19T11:42:07;2.42;;;1.70;;
54909;SDS011;40808;51.240;9.964;2022-08-19T11:44:51;1.92;;;1.30;;
54909;SDS011;40808;51.240;9.964;2022-08-19T11:47:17;2.00;;;1.60;;
54909;SDS011;40808;51.240;9.964;2022-08-19T11:49:44;2.45;;;1.60;;
54909;SDS011;40808;51.240;9.964;2022-08-19T11:52:11;1.90;;;1.20;;
54909;SDS011;40808;51.240;9.964;2022-08-19T11:54:36;2.47;;;1.70;;
54909;SDS011;40808;51.240;9.964;2022-08-19T11:57:02;2.22;;;1.95;;
54909;SDS011;40808;51.240;9.964;2022-08-19T11:59:28;2.70;;;1.80;;
54909;SDS011;40808;51.240;9.964;2022-08-19T12:01:54;2.72;;;1.42;;
54909;SDS011;40808;51.240;9.964;2022-08-19T12:04:21;3.88;;;1.50;;
54909;SDS011;40808;51.240;9.964;2022-08-19T12:06:46;8.32;;;2.10;;
54909;SDS011;40808;51.240;9.964;2022-08-19T12:09:12;2.20;;;1.50;;
54909;SDS011;40808;51.240;9.964;2022-08-19T12:11:39;3.97;;;1.50;;
54909;SDS011;40808;51.240;9.964;2022-08-19T12:14:05;3.13;;;1.73;;
54909;SDS011;40808;51.240;9.964;2022-08-19T12:16:31;1.70;;;1.45;;
54909;SDS011;40808;51.240;9.964;2022-08-19T12:18:57;3.55;;;1.73;;
54909;SDS011;40808;51.240;9.964;2022-08-19T12:21:28;2.38;;;1.60;;
54909;SDS011;40808;51.240;9.964;2022-08-19T12:23:56;3.25;;;1.20;;
54909;SDS011;40808;51.240;9.964;2022-08-19T12:26:23;2.33;;;1.48;;
54909;SDS011;40808;51.240;9.964;2022-08-19T12:28:50;2.30;;;1.52;;
54909;SDS011;40808;51.240;9.964;2022-08-19T12:31:15;3.58;;;1.70;;
54909;SDS011;40808;51.240;9.964;2022-08-19T12:33:41;68.07;;;38.28;;
54909;SDS011;40808;51.240;9.964;2022-08-19T12:36:08;2.72;;;1.50;;
54909;SDS011;40808;51.240;9.964;2022-08-19T12:38:35;2.30;;;1.60;;
54909;SDS011;40808;51.240;9.964;2022-08-19T12:41:02;1.73;;;1.35;;
54909;SDS011;40808;51.240;9.964;2022-08-19T12:43:30;2.17;;;1.50;;
54909;SDS011;40808;51.240;9.964;2022-08-19T12:45:55;2.40;;;1.35;;
54909;SDS011;40808;51.240;9.964;2022-08-19T12:48:21;1.70;;;1.23;;
54909;SDS011;40808;51.240;9.964;2022-08-19T12:50:46;1.63;;;1.35;;
54909;SDS011;40808;51.240;9.964;2022-08-19T12:53:12;8.43;;;1.52;;
54909;SDS011;40808;51.240;9.964;2022-08-19T12:55:38;1.50;;;1.30;;
54909;SDS011;40808;51.240;9.964;2022-08-19T12:58:03;2.60;;;1.50;;
54909;SDS011;40808;51.240;9.964;2022-08-19T13:00:29;2.28;;;1.30;;
54909;SDS011;40808;51.240;9.964;2022-08-19T13:02:57;1.90;;;1.45;;
54909;SDS011;40808;51.240;9.964;2022-08-19T13:05:24;2.17;;;1.48;;
54909;SDS011;40808;51.240;9.964;2022-08-19T13:07:52;2.03;;;1.45;;
54909;SDS011;40808;51.240;9.964;2022-08-19T13:10:22;2.40;;;1.50;;
54909;SDS011;40808;51.240;9.964;2022-08-19T13:12:50;5.10;;;1.98;;
54909;SDS011;40808;51.240;9.964;2022-08-19T13:15:17;1.90;;;1.60;;
54909;SDS011;40808;51.240;9.964;2022-08-19T13:17:47;5.28;;;1.80;;
54909;SDS011;40808;51.240;9.964;2022-08-19T13:20:14;6.88;;;2.10;;
54909;SDS011;40808;51.240;9.964;2022-08-19T13:22:42;3.45;;;1.65;;
54909;SDS011;40808;51.240;9.964;2022-08-19T13:25:11;2.92;;;1.65;;
54909;SDS011;40808;51.240;9.964;2022-08-19T13:27:39;3.13;;;1.80;;
54909;SDS011;40808;51.240;9.964;2022-08-19T13:30:06;3.70;;;2.30;;
54909;SDS011;40808;51.240;9.964;2022-08-19T13:32:52;2.38;;;1.80;;
54909;SDS011;40808;51.240;9.964;2022-08-19T13:38:16;1.98;;;1.30;;
54909;SDS011;40808;51.240;9.964;2022-08-19T13:40:45;2.67;;;1.85;;
54909;SDS011;40808;51.240;9.964;2022-08-19T13:43:11;9.75;;;1.95;;
54909;SDS011;40808;51.240;9.964;2022-08-19T13:45:37;1.30;;;1.13;;
54909;SDS011;40808;51.240;9.964;2022-08-19T13:48:03;4.03;;;1.77;;
54909;SDS011;40808;51.240;9.964;2022-08-19T13:50:34;1.77;;;1.30;;
54909;SDS011;40808;51.240;9.964;2022-08-19T13:53:06;3.33;;;1.90;;
54909;SDS011;40808;51.240;9.964;2022-08-19T13:55:32;4.22;;;1.50;;
54909;SDS011;40808;51.240;9.964;2022-08-19T13:57:58;2.47;;;1.73;;
54909;SDS011;40808;51.240;9.964;2022-08-19T14:00:27;2.05;;;1.50;;
54909;SDS011;40808;51.240;9.964;2022-08-19T14:02:55;1.67;;;1.50;;
54909;SDS011;40808;51.240;9.964;2022-08-19T14:05:21;3.80;;;1.85;;
54909;SDS011;40808;51.240;9.964;2022-08-19T14:07:48;3.65;;;1.70;;
54909;SDS011;40808;51.240;9.964;2022-08-19T14:10:14;3.00;;;1.20;;
54909;SDS011;40808;51.240;9.964;2022-08-19T14:12:41;2.40;;;1.40;;
54909;SDS011;40808;51.240;9.964;2022-08-19T14:15:08;2.47;;;1.60;;
54909;SDS011;40808;51.240;9.964;2022-08-19T14:17:37;1.73;;;1.45;;
54909;SDS011;40808;51.240;9.964;2022-08-19T14:20:04;3.13;;;1.90;;
54909;SDS011;40808;51.240;9.964;2022-08-19T14:22:34;1.95;;;1.38;;
54909;SDS011;40808;51.240;9.964;2022-08-19T14:25:01;2.58;;;1.40;;
54909;SDS011;40808;51.240;9.964;2022-08-19T14:27:28;4.55;;;1.92;;
54909;SDS011;40808;51.240;9.964;2022-08-19T14:29:53;2.30;;;1.63;;
54909;SDS011;40808;51.240;9.964;2022-08-19T14:32:20;5.07;;;1.70;;
54909;SDS011;40808;51.240;9.964;2022-08-19T14:34:46;4.70;;;1.67;;
54909;SDS011;40808;51.240;9.964;2022-08-19T14:37:12;2.22;;;1.67;;
54909;SDS011;40808;51.240;9.964;2022-08-19T14:39:40;2.08;;;1.40;;
54909;SDS011;40808;51.240;9.964;2022-08-19T14:42:06;3.97;;;1.50;;
54909;SDS011;40808;51.240;9.964;2022-08-19T14:44:33;2.75;;;1.70;;
54909;SDS011;40808;51.240;9.964;2022-08-19T14:46:59;1.65;;;1.27;;
54909;SDS011;40808;51.240;9.964;2022-08-19T14:49:24;1.73;;;1.40;;
54909;SDS011;40808;51.240;9.964;2022-08-19T14:51:49;2.50;;;1.70;;
54909;SDS011;40808;51.240;9.964;2022-08-19T14:54:15;3.50;;;1.73;;
54909;SDS011;40808;51.240;9.964;2022-08-19T14:56:40;2.20;;;1.55;;
54909;SDS011;40808;51.240;9.964;2022-08-19T14:59:06;3.58;;;1.23;;
54909;SDS011;40808;51.240;9.964;2022-08-19T15:01:31;1.67;;;1.40;;
54909;SDS011;40808;51.240;9.964;2022-08-19T15:03:57;1.75;;;1.40;;
54909;SDS011;40808;51.240;9.964;2022-08-19T15:06:25;1.20;;;1.10;;